createdAt,value
2023-02-24T00:00:30.973Z,100800.25
2023-02-24T00:03:33.556Z,100794.13
2023-02-24T00:06:40.431Z,100793.75
2023-02-24T00:09:44.484Z,100795.84
2023-02-24T00:12:49.203Z,100790.06
2023-02-24T00:16:02.420Z,100784.22
2023-02-24T00:19:07.396Z,100775.44
2023-02-24T00:22:10.755Z,100772.78
2023-02-24T00:25:14.506Z,100769.66
2023-02-24T00:28:18.452Z,100764.47
2023-02-24T00:31:24.332Z,100763.41
2023-02-24T00:34:27.668Z,100755.97
2023-02-24T00:37:30.650Z,100759.09
2023-02-24T00:40:37.112Z,100767.97
2023-02-24T00:43:41.308Z,100751.91
2023-02-24T00:46:47.501Z,100750.84
2023-02-24T00:49:50.598Z,100740.97
2023-02-24T00:52:53.205Z,100737.03
2023-02-24T00:56:00.598Z,100743.97
2023-02-24T00:59:04.662Z,100735.59
2023-02-24T01:02:08.116Z,100725.28
2023-02-24T01:05:11.905Z,100717.72
2023-02-24T01:08:19.833Z,100705.69
2023-02-24T01:11:42.674Z,100694.91
2023-02-24T01:14:48.568Z,100703.38
2023-02-24T01:17:51.196Z,100696.69
2023-02-24T01:20:53.804Z,100693.72
2023-02-24T01:23:56.411Z,100696.06
2023-02-24T01:26:59.049Z,100688.91
2023-02-24T01:30:04.842Z,100682.13
2023-02-24T01:33:08.128Z,100669.31
2023-02-24T01:36:12.858Z,100663.91
2023-02-24T01:39:15.473Z,100666.03
2023-02-24T01:42:20.155Z,100665.41
2023-02-24T01:45:26.447Z,100647.88
2023-02-24T01:48:30.761Z,100649.69
2023-02-24T01:51:39.550Z,100648.22
2023-02-24T01:54:45.252Z,100647.81
2023-02-24T01:57:49.834Z,100641.09
2023-02-24T02:00:53.922Z,100631.78
2023-02-24T02:04:05.463Z,100626.97
2023-02-24T02:07:10.081Z,100628.16
2023-02-24T02:10:16.872Z,100621.84
2023-02-24T02:13:21.397Z,100615.97
2023-02-24T02:16:56.510Z,100611.56
2023-02-24T02:20:43.946Z,100605.06
2023-02-24T02:24:15.798Z,100600.81
2023-02-24T02:27:29.388Z,100596.59
2023-02-24T02:31:16.869Z,100592.88
2023-02-24T02:34:37.682Z,100586.38
2023-02-24T02:37:48.414Z,100582.25
2023-02-24T02:41:02.026Z,100576.22
2023-02-24T02:44:12.495Z,100563.19
2023-02-24T02:47:23.146Z,100563.88
2023-02-24T02:50:32.727Z,100556.84
2023-02-24T02:53:40.640Z,100547.03
2023-02-24T02:56:48.025Z,100542.84
2023-02-24T02:59:56.826Z,100543.84
2023-02-24T03:03:03.828Z,100545.63
2023-02-24T03:06:14.187Z,100537.00
2023-02-24T03:09:22.392Z,100527.25
2023-02-24T03:12:27.832Z,100525.88
2023-02-24T03:15:34.100Z,100525.94
2023-02-24T03:18:40.348Z,100519.22
2023-02-24T03:21:47.031Z,100513.97
2023-02-24T03:24:49.738Z,100502.00
2023-02-24T03:27:56.965Z,100503.72
2023-02-24T03:31:04.176Z,100500.34
2023-02-24T03:34:13.272Z,100485.84
2023-02-24T03:37:23.902Z,100495.78
2023-02-24T03:40:30.613Z,100491.59
2023-02-24T03:43:36.379Z,100480.56
2023-02-24T03:46:42.440Z,100467.34
2023-02-24T03:49:45.273Z,100467.84
2023-02-24T03:53:01.354Z,100451.00
2023-02-24T03:56:17.591Z,100455.13
2023-02-24T03:59:35.056Z,100450.25
2023-02-24T04:02:38.652Z,100437.88
2023-02-24T04:05:48.254Z,100436.00
2023-02-24T04:09:02.737Z,100440.44
2023-02-24T04:12:10.162Z,100423.63
2023-02-24T04:15:19.356Z,100413.06
2023-02-24T04:18:27.289Z,100401.88
2023-02-24T04:21:32.100Z,100397.13
2023-02-24T04:24:37.018Z,100393.69
2023-02-24T04:27:41.626Z,100377.66
2023-02-24T04:30:49.325Z,100367.78
2023-02-24T04:33:53.247Z,100353.34
2023-02-24T04:36:55.833Z,100344.44
2023-02-24T04:39:59.785Z,100345.31
2023-02-24T04:43:03.011Z,100335.44
2023-02-24T04:46:08.039Z,100338.81
2023-02-24T04:49:10.703Z,100323.56
2023-02-24T04:52:15.197Z,100324.22
2023-02-24T04:55:19.501Z,100315.44
2023-02-24T04:58:27.495Z,100306.38
2023-02-24T05:01:31.184Z,100305.13
2023-02-24T05:04:38.768Z,100300.69
2023-02-24T05:07:41.631Z,100290.03
2023-02-24T05:10:47.415Z,100281.09
2023-02-24T05:13:50.860Z,100276.13
2023-02-24T05:16:59.921Z,100268.72
2023-02-24T05:20:20.270Z,100258.34
2023-02-24T05:23:26.422Z,100256.00
2023-02-24T05:26:32.034Z,100244.13
2023-02-24T05:29:36.535Z,100236.78
2023-02-24T05:32:39.207Z,100234.91
2023-02-24T05:35:41.984Z,100220.63
2023-02-24T05:38:45.528Z,100219.31
2023-02-24T05:41:50.977Z,100213.63
2023-02-24T05:44:53.579Z,100196.47
2023-02-24T05:47:56.166Z,100201.25
2023-02-24T05:50:59.602Z,100194.72
2023-02-24T05:54:04.799Z,100191.94
2023-02-24T05:57:11.839Z,100179.34
2023-02-24T06:00:16.542Z,100178.19
2023-02-24T06:03:30.796Z,100177.13
2023-02-24T06:06:37.811Z,100166.44
2023-02-24T06:09:44.886Z,100163.19
2023-02-24T06:12:48.956Z,100151.94
2023-02-24T06:15:57.123Z,100153.81
2023-02-24T06:18:59.727Z,100154.50
2023-02-24T06:22:03.942Z,100147.97
2023-02-24T06:25:07.744Z,100144.09
2023-02-24T06:28:11.678Z,100140.56
2023-02-24T06:31:15.029Z,100138.97
2023-02-24T06:34:18.294Z,100132.47
2023-02-24T06:37:22.715Z,100129.22
2023-02-24T06:40:25.471Z,100127.13
2023-02-24T06:43:29.378Z,100124.06
2023-02-24T06:46:32.341Z,100119.69
2023-02-24T06:49:35.394Z,100119.50
2023-02-24T06:52:37.989Z,100116.78
2023-02-24T06:55:40.557Z,100113.84
2023-02-24T06:58:45.921Z,100107.78
2023-02-24T07:01:49.138Z,100105.94
2023-02-24T07:04:55.162Z,100096.94
2023-02-24T07:07:57.772Z,100088.63
2023-02-24T07:11:00.348Z,100084.13
2023-02-24T07:14:05.655Z,100082.06
2023-02-24T07:17:08.481Z,100074.97
2023-02-24T07:20:25.159Z,100074.41
2023-02-24T07:23:29.317Z,100064.00
2023-02-24T07:26:32.097Z,100063.25
2023-02-24T07:29:38.015Z,100049.63
2023-02-24T07:32:40.693Z,100044.72
2023-02-24T07:35:43.858Z,100049.34
2023-02-24T07:38:46.692Z,100038.03
2023-02-24T07:41:49.543Z,100034.44
2023-02-24T07:44:55.037Z,100026.88
2023-02-24T07:47:58.283Z,100023.88
2023-02-24T07:51:02.104Z,100010.41
2023-02-24T07:54:05.580Z,100012.06
2023-02-24T07:57:13.372Z,100018.56
2023-02-24T08:00:19.677Z,100004.53
2023-02-24T08:03:23.736Z,100002.91
2023-02-24T08:06:37.658Z,99996.34
2023-02-24T08:10:03.250Z,99984.09
2023-02-24T08:13:06.674Z,99983.22
2023-02-24T08:16:10.640Z,99973.84
2023-02-24T08:19:20.105Z,99970.28
2023-02-24T08:22:24.165Z,99975.22
2023-02-24T08:25:35.558Z,99961.09
2023-02-24T08:28:39.329Z,99955.09
2023-02-24T08:31:43.433Z,99944.00
2023-02-24T08:34:49.149Z,99939.09
2023-02-24T08:37:53.894Z,99929.59
2023-02-24T08:40:59.215Z,99928.34
2023-02-24T08:44:02.886Z,99917.31
2023-02-24T08:47:07.545Z,99911.91
2023-02-24T08:50:11.472Z,99902.56
2023-02-24T08:53:18.991Z,99892.47
2023-02-24T08:56:24.813Z,99893.94
2023-02-24T08:59:37.665Z,99876.38
2023-02-24T09:02:42.478Z,99890.75
2023-02-24T09:05:46.113Z,99876.69
2023-02-24T09:08:49.164Z,99868.00
2023-02-24T09:11:55.844Z,99863.53
2023-02-24T09:15:01.148Z,99855.81
2023-02-24T09:18:08.188Z,99844.81
2023-02-24T09:21:32.300Z,99837.00
2023-02-24T09:24:34.901Z,99832.91
2023-02-24T09:27:42.180Z,99831.44
2023-02-24T09:30:54.234Z,99830.69
2023-02-24T09:34:03.953Z,99818.25
2023-02-24T09:37:24.694Z,99813.63
2023-02-24T09:40:48.860Z,99811.03
2023-02-24T09:43:59.837Z,99791.66
2023-02-24T09:47:15.777Z,99803.03
2023-02-24T09:51:02.154Z,99798.22
2023-02-24T09:54:15.432Z,99792.56
2023-02-24T09:57:25.370Z,99789.47
2023-02-24T10:00:33.463Z,99788.13
2023-02-24T10:03:48.023Z,99774.13
2023-02-24T10:06:58.183Z,99781.66
2023-02-24T10:10:19.641Z,99769.84
2023-02-24T10:13:32.450Z,99775.94
2023-02-24T10:16:45.814Z,99769.09
2023-02-24T10:19:56.336Z,99758.50
2023-02-24T10:23:06.166Z,99759.59
2023-02-24T10:26:22.002Z,99754.28
2023-02-24T10:29:34.542Z,99738.44
2023-02-24T10:32:46.987Z,99733.75
2023-02-24T10:35:50.200Z,99731.13
2023-02-24T10:38:55.974Z,99720.94
2023-02-24T10:42:15.582Z,99727.63
2023-02-24T10:45:34.816Z,99713.41
2023-02-24T10:48:41.776Z,99713.72
2023-02-24T10:51:52.197Z,99707.63
2023-02-24T10:55:05.307Z,99707.19
2023-02-24T10:58:15.730Z,99695.66
2023-02-24T11:01:21.912Z,99692.84
2023-02-24T11:04:53.822Z,99681.19
2023-02-24T11:08:09.501Z,99668.09
2023-02-24T11:11:25.336Z,99673.97
2023-02-24T11:14:45.557Z,99669.88
2023-02-24T11:17:51.832Z,99663.25
2023-02-24T11:20:57.024Z,99653.16
2023-02-24T11:24:02.786Z,99650.28
2023-02-24T11:27:10.632Z,99634.97
2023-02-24T11:30:20.414Z,99632.78
2023-02-24T11:33:31.786Z,99636.78
2023-02-24T11:36:41.831Z,99615.75
2023-02-24T11:39:55.421Z,99621.66
2023-02-24T11:43:04.587Z,99608.69
2023-02-24T11:46:13.353Z,99598.53
2023-02-24T11:49:27.896Z,99590.38
2023-02-24T11:52:34.700Z,99583.94
2023-02-24T11:55:42.506Z,99578.47
2023-02-24T11:58:53.691Z,99574.06
2023-02-24T12:02:01.309Z,99565.97
2023-02-24T12:05:12.664Z,99561.00
2023-02-24T12:08:25.616Z,99550.22
2023-02-24T12:11:39.919Z,99549.63
2023-02-24T12:14:49.609Z,99547.88
2023-02-24T12:17:57.984Z,99538.44
2023-02-24T12:21:06.753Z,99524.63
2023-02-24T12:24:12.386Z,99520.13
2023-02-24T12:27:21.003Z,99508.13
2023-02-24T12:30:48.772Z,99508.81
2023-02-24T12:34:04.685Z,99500.38
2023-02-24T12:37:35.699Z,99501.31
2023-02-24T12:40:46.495Z,99500.84
2023-02-24T12:43:56.351Z,99496.84
2023-02-24T12:47:07.634Z,99493.59
2023-02-24T12:50:27.240Z,99489.72
2023-02-24T12:53:36.820Z,99473.72
2023-02-24T12:56:47.432Z,99473.09
2023-02-24T12:59:51.312Z,99476.38
2023-02-24T13:03:07.115Z,99466.94
2023-02-24T13:06:16.450Z,99456.38
2023-02-24T13:09:26.004Z,99447.06
2023-02-24T13:12:37.406Z,99451.31
2023-02-24T13:15:50.486Z,99449.28
2023-02-24T13:19:06.049Z,99433.84
2023-02-24T13:22:20.469Z,99444.00
2023-02-24T13:25:26.772Z,99427.97
2023-02-24T13:28:33.114Z,99423.31
2023-02-24T13:31:43.631Z,99408.06
2023-02-24T13:34:47.699Z,99402.41
2023-02-24T13:37:50.512Z,99414.13
2023-02-24T13:40:53.142Z,99402.03
2023-02-24T13:43:58.890Z,99402.53
2023-02-24T13:47:43.854Z,99396.50
2023-02-24T13:51:04.015Z,99394.66
2023-02-24T13:54:23.904Z,99388.53
2023-02-24T13:57:53.902Z,99392.44
2023-02-24T14:01:08.590Z,99386.91
2023-02-24T14:04:17.745Z,99379.09
2023-02-24T14:07:26.032Z,99374.13
2023-02-24T14:10:30.927Z,99382.03
2023-02-24T14:13:36.599Z,99385.13
2023-02-24T14:16:40.863Z,99382.69
2023-02-24T14:19:43.574Z,99367.91
2023-02-24T14:22:49.599Z,99366.84
2023-02-24T14:25:58.243Z,99349.44
2023-02-24T14:29:03.327Z,99344.91
2023-02-24T14:32:06.062Z,99352.34
2023-02-24T14:35:20.742Z,99343.69
2023-02-24T14:38:34.623Z,99332.25
2023-02-24T14:41:37.829Z,99331.22
2023-02-24T14:44:43.343Z,99332.97
2023-02-24T14:47:46.029Z,99329.03
2023-02-24T14:50:48.753Z,99323.66
2023-02-24T14:53:55.446Z,99317.25
2023-02-24T14:57:00.228Z,99312.06
2023-02-24T15:00:11.482Z,99308.84
2023-02-24T15:03:19.606Z,99304.13
2023-02-24T15:06:25.846Z,99289.75
2023-02-24T15:09:36.544Z,99290.22
2023-02-24T15:12:47.490Z,99283.09
2023-02-24T15:15:50.263Z,99275.78
2023-02-24T15:18:55.632Z,99272.59
2023-02-24T15:21:58.355Z,99266.34
2023-02-24T15:25:19.725Z,99271.91
2023-02-24T15:28:25.786Z,99264.56
2023-02-24T15:31:29.579Z,99268.06
2023-02-24T15:34:35.806Z,99265.50
2023-02-24T15:37:42.567Z,99270.34
2023-02-24T15:40:53.920Z,99265.84
2023-02-24T15:43:57.025Z,99259.25
2023-02-24T15:47:01.642Z,99254.94
2023-02-24T15:50:04.299Z,99251.41
2023-02-24T15:53:08.777Z,99248.19
2023-02-24T15:56:12.731Z,99253.63
2023-02-24T15:59:16.110Z,99242.44
2023-02-24T16:02:20.961Z,99244.28
2023-02-24T16:05:23.915Z,99238.19
2023-02-24T16:08:27.158Z,99233.41
2023-02-24T16:11:36.268Z,99232.94
2023-02-24T16:14:39.642Z,99230.22
2023-02-24T16:17:43.528Z,99233.25
2023-02-24T16:20:48.735Z,99225.69
2023-02-24T16:23:51.476Z,99227.22
2023-02-24T16:26:55.528Z,99229.38
2023-02-24T16:29:58.343Z,99230.91
2023-02-24T16:33:02.516Z,99227.22
2023-02-24T16:36:10.784Z,99219.53
2023-02-24T16:39:14.007Z,99223.94
2023-02-24T16:42:20.785Z,99224.09
2023-02-24T16:45:28.797Z,99221.38
2023-02-24T16:48:34.553Z,99224.09
2023-02-24T16:51:38.985Z,99230.50
2023-02-24T16:54:42.469Z,99222.53
2023-02-24T16:57:46.546Z,99231.38
2023-02-24T17:00:52.128Z,99235.03
2023-02-24T17:03:55.220Z,99229.91
2023-02-24T17:06:57.785Z,99230.41
2023-02-24T17:10:00.349Z,99236.28
2023-02-24T17:13:04.320Z,99223.56
2023-02-24T17:16:07.379Z,99229.03
2023-02-24T17:19:10.107Z,99230.91
2023-02-24T17:22:12.686Z,99226.47
2023-02-24T17:25:16.733Z,99236.38
2023-02-24T17:28:20.950Z,99229.97
2023-02-24T17:31:23.973Z,99240.56
2023-02-24T17:34:26.865Z,99234.56
2023-02-24T17:37:29.428Z,99229.88
2023-02-24T17:40:31.999Z,99242.56
2023-02-24T17:43:35.954Z,99239.59
2023-02-24T17:46:39.251Z,99240.09
2023-02-24T17:49:41.996Z,99240.44
2023-02-24T17:52:44.739Z,99245.47
2023-02-24T17:56:02.022Z,99254.19
2023-02-24T17:59:06.691Z,99246.69
2023-02-24T18:02:11.536Z,99253.91
2023-02-24T18:05:14.147Z,99251.06
2023-02-24T18:08:16.721Z,99234.84
2023-02-24T18:11:20.620Z,99236.28
2023-02-24T18:14:24.579Z,99246.28
2023-02-24T18:17:27.304Z,99246.09
2023-02-24T18:20:30.824Z,99250.22
2023-02-24T18:23:34.112Z,99241.78
2023-02-24T18:26:36.946Z,99233.97
2023-02-24T18:29:40.996Z,99240.81
2023-02-24T18:32:44.838Z,99240.94
2023-02-24T18:35:47.583Z,99248.84
2023-02-24T18:38:50.190Z,99241.50
2023-02-24T18:41:52.784Z,99242.59
2023-02-24T18:44:56.715Z,99251.19
2023-02-24T18:48:01.758Z,99251.47
2023-02-24T18:51:04.944Z,99244.63
2023-02-24T18:54:07.521Z,99237.66
2023-02-24T18:57:10.101Z,99248.34
2023-02-24T19:00:15.468Z,99256.59
2023-02-24T19:03:18.191Z,99256.16
2023-02-24T19:06:22.110Z,99262.91
2023-02-24T19:09:24.903Z,99253.88
2023-02-24T19:12:27.496Z,99246.09
2023-02-24T19:15:31.474Z,99244.28
2023-02-24T19:18:34.806Z,99247.25
2023-02-24T19:21:37.408Z,99244.28
2023-02-24T19:24:39.964Z,99245.13
2023-02-24T19:27:42.566Z,99245.00
2023-02-24T19:30:46.580Z,99252.53
2023-02-24T19:33:52.683Z,99248.72
2023-02-24T19:36:55.271Z,99253.53
2023-02-24T19:39:57.847Z,99246.28
2023-02-24T19:43:00.421Z,99242.81
2023-02-24T19:46:08.869Z,99248.47
2023-02-24T19:49:11.637Z,99241.50
2023-02-24T19:52:14.214Z,99254.91
2023-02-24T19:55:17.038Z,99248.31
2023-02-24T19:58:19.615Z,99238.34
2023-02-24T20:01:24.689Z,99245.69
2023-02-24T20:04:27.387Z,99253.41
2023-02-24T20:07:30.056Z,99252.41
2023-02-24T20:10:32.698Z,99245.97
2023-02-24T20:13:35.293Z,99248.88
2023-02-24T20:16:41.733Z,99252.00
2023-02-24T20:19:44.498Z,99241.50
2023-02-24T20:22:47.091Z,99253.88
2023-02-24T20:25:51.780Z,99246.75
2023-02-24T20:28:55.336Z,99254.56
2023-02-24T20:31:59.911Z,99243.34
2023-02-24T20:35:02.660Z,99262.69
2023-02-24T20:38:05.255Z,99259.50
2023-02-24T20:41:08.196Z,99266.03
2023-02-24T20:44:11.972Z,99249.03
2023-02-24T20:47:18.187Z,99256.09
2023-02-24T20:50:21.703Z,99256.69
2023-02-24T20:53:24.343Z,99245.13
2023-02-24T20:56:28.110Z,99267.84
2023-02-24T20:59:30.723Z,99256.59
2023-02-24T21:02:35.077Z,99258.31
2023-02-24T21:05:37.661Z,99264.63
2023-02-24T21:08:40.810Z,99262.72
2023-02-24T21:11:43.381Z,99269.03
2023-02-24T21:14:45.972Z,99267.31
2023-02-24T21:17:49.894Z,99273.03
2023-02-24T21:20:53.502Z,99272.31
2023-02-24T21:23:56.791Z,99261.72
2023-02-24T21:27:00.105Z,99270.00
2023-02-24T21:30:02.691Z,99282.22
2023-02-24T21:33:07.021Z,99274.56
2023-02-24T21:36:13.404Z,99277.44
2023-02-24T21:39:15.990Z,99281.06
2023-02-24T21:42:18.565Z,99290.84
2023-02-24T21:45:21.295Z,99282.47
2023-02-24T21:48:25.205Z,99293.41
2023-02-24T21:51:29.161Z,99291.84
2023-02-24T21:54:32.122Z,99294.00
2023-02-24T21:57:41.012Z,99292.31
2023-02-24T22:00:43.717Z,99310.91
2023-02-24T22:03:47.734Z,99303.44
2023-02-24T22:06:50.374Z,99309.19
2023-02-24T22:09:52.924Z,99308.94
2023-02-24T22:12:56.984Z,99312.47
2023-02-24T22:16:01.957Z,99314.50
2023-02-24T22:19:06.501Z,99328.00
2023-02-24T22:22:09.079Z,99330.78
2023-02-24T22:25:11.834Z,99334.19
2023-02-24T22:28:14.575Z,99330.63
2023-02-24T22:31:19.432Z,99341.13
2023-02-24T22:34:23.439Z,99344.03
2023-02-24T22:37:26.160Z,99347.28
2023-02-24T22:40:28.926Z,99350.84
2023-02-24T22:43:32.101Z,99352.00
2023-02-24T22:46:36.514Z,99346.84
2023-02-24T22:49:40.463Z,99356.50
2023-02-24T22:52:43.049Z,99356.09
2023-02-24T22:55:47.379Z,99359.56
2023-02-24T22:58:50.290Z,99361.16
2023-02-24T23:01:53.719Z,99361.19
2023-02-24T23:04:58.722Z,99364.38
2023-02-24T23:08:03.324Z,99365.47
2023-02-24T23:11:08.211Z,99367.13
2023-02-24T23:14:13.732Z,99370.00
2023-02-24T23:17:16.394Z,99371.88
2023-02-24T23:20:20.615Z,99372.13
2023-02-24T23:23:23.417Z,99379.72
2023-02-24T23:26:30.113Z,99389.59
2023-02-24T23:29:32.769Z,99381.78
2023-02-24T23:32:35.990Z,99391.56
2023-02-24T23:35:40.691Z,99387.31
2023-02-24T23:38:43.289Z,99389.97
2023-02-24T23:41:45.929Z,99393.78
2023-02-24T23:44:49.300Z,99399.88
2023-02-24T23:47:52.104Z,99406.06
2023-02-24T23:50:57.275Z,99410.50
2023-02-24T23:54:00.407Z,99403.72
2023-02-24T23:57:03.029Z,99414.34
